createdAt,value
2022-08-12T00:00:35.071Z,20.90
2022-08-12T00:03:21.260Z,20.80
2022-08-12T00:06:06.938Z,20.80
2022-08-12T00:08:52.559Z,20.70
2022-08-12T00:11:38.230Z,20.60
2022-08-12T00:14:23.599Z,20.70
2022-08-12T00:17:09.194Z,20.60
2022-08-12T00:19:54.839Z,20.60
2022-08-12T00:22:40.654Z,20.60
2022-08-12T00:26:01.367Z,20.50
2022-08-12T00:28:31.645Z,20.40
2022-08-12T00:31:17.239Z,20.40
2022-08-12T00:34:03.069Z,20.30
2022-08-12T00:36:50.930Z,20.20
2022-08-12T00:39:36.846Z,20.20
2022-08-12T00:42:12.937Z,20.10
2022-08-12T00:44:39.761Z,20.10
2022-08-12T00:47:06.505Z,20.00
2022-08-12T00:49:36.155Z,20.00
2022-08-12T00:52:12.233Z,20.00
2022-08-12T00:54:39.008Z,20.10
2022-08-12T00:57:05.769Z,20.20
2022-08-12T00:59:32.587Z,20.20
2022-08-12T01:02:11.543Z,20.30
2022-08-12T01:04:58.161Z,20.30
2022-08-12T01:07:43.722Z,20.20
2022-08-12T01:10:32.650Z,20.20
2022-08-12T01:13:07.249Z,20.10
2022-08-12T01:15:46.188Z,20.10
2022-08-12T01:18:12.920Z,20.00
2022-08-12T01:20:39.656Z,20.00
2022-08-12T01:23:06.819Z,19.90
2022-08-12T01:25:37.385Z,19.90
2022-08-12T01:28:08.422Z,19.80
2022-08-12T01:30:35.314Z,19.80
2022-08-12T01:33:02.086Z,19.70
2022-08-12T01:35:28.891Z,19.70
2022-08-12T01:37:55.755Z,19.60
2022-08-12T01:40:33.423Z,19.60
2022-08-12T01:43:03.964Z,19.50
2022-08-12T01:45:40.592Z,19.40
2022-08-12T01:48:11.231Z,19.40
2022-08-12T01:50:38.097Z,19.40
2022-08-12T01:53:06.375Z,19.40
2022-08-12T01:55:33.500Z,19.40
2022-08-12T01:58:01.104Z,19.30
2022-08-12T02:00:46.118Z,19.30
2022-08-12T02:03:22.408Z,19.30
2022-08-12T02:06:07.949Z,19.30
2022-08-12T02:08:53.463Z,19.20
2022-08-12T02:11:21.478Z,19.10
2022-08-12T02:13:49.734Z,19.10
2022-08-12T02:16:16.904Z,19.10
2022-08-12T02:18:44.304Z,19.00
2022-08-12T02:21:11.026Z,19.00
2022-08-12T02:23:37.915Z,19.00
2022-08-12T02:26:04.768Z,18.90
2022-08-12T02:28:31.748Z,18.90
2022-08-12T02:30:58.604Z,18.90
2022-08-12T02:33:25.605Z,19.00
2022-08-12T02:35:52.412Z,19.10
2022-08-12T02:38:19.243Z,19.20
2022-08-12T02:40:46.135Z,19.30
2022-08-12T02:43:12.964Z,19.40
2022-08-12T02:45:39.700Z,19.40
2022-08-12T02:48:06.905Z,19.50
2022-08-12T02:50:33.659Z,19.50
2022-08-12T02:53:00.486Z,19.60
2022-08-12T02:55:34.112Z,19.60
2022-08-12T02:58:04.289Z,19.60
2022-08-12T03:00:35.889Z,19.50
2022-08-12T03:03:03.249Z,19.40
2022-08-12T03:05:30.077Z,19.30
2022-08-12T03:08:05.769Z,19.20
2022-08-12T03:10:39.613Z,19.20
2022-08-12T03:13:08.418Z,19.10
2022-08-12T03:15:35.795Z,19.10
2022-08-12T03:18:23.633Z,19.00
2022-08-12T03:20:49.283Z,18.90
2022-08-12T03:23:29.183Z,18.90
2022-08-12T03:25:58.883Z,18.80
2022-08-12T03:28:44.620Z,18.70
2022-08-12T03:31:11.456Z,18.60
2022-08-12T03:33:38.221Z,18.50
2022-08-12T03:36:04.929Z,18.40
2022-08-12T03:38:31.692Z,18.30
2022-08-12T03:41:17.283Z,18.30
2022-08-12T03:44:03.028Z,18.30
2022-08-12T03:46:48.590Z,18.30
2022-08-12T03:49:34.212Z,18.30
2022-08-12T03:52:19.786Z,18.30
2022-08-12T03:55:05.580Z,18.20
2022-08-12T03:57:50.782Z,18.20
2022-08-12T04:00:24.777Z,18.20
2022-08-12T04:02:59.193Z,18.30
2022-08-12T04:05:54.713Z,18.20
2022-08-12T04:08:14.523Z,18.20
2022-08-12T04:11:00.195Z,18.20
2022-08-12T04:13:26.933Z,18.20
2022-08-12T04:15:54.136Z,18.10
2022-08-12T04:18:21.063Z,18.10
2022-08-12T04:20:48.808Z,18.00
2022-08-12T04:23:16.736Z,18.00
2022-08-12T04:25:44.436Z,17.90
2022-08-12T04:28:13.780Z,17.90
2022-08-12T04:30:40.810Z,17.90
2022-08-12T04:33:09.116Z,17.90
2022-08-12T04:35:35.911Z,17.90
2022-08-12T04:38:02.651Z,17.90
2022-08-12T04:40:29.968Z,17.90
2022-08-12T04:42:56.819Z,17.90
2022-08-12T04:45:23.575Z,17.90
2022-08-12T04:47:50.383Z,17.90
2022-08-12T04:50:34.912Z,17.80
2022-08-12T04:53:03.658Z,17.80
2022-08-12T04:55:30.470Z,17.90
2022-08-12T04:57:57.198Z,17.90
2022-08-12T05:00:24.153Z,17.90
2022-08-12T05:02:51.134Z,17.90
2022-08-12T05:05:19.265Z,17.90
2022-08-12T05:07:54.106Z,17.90
2022-08-12T05:10:21.739Z,17.90
2022-08-12T05:13:01.217Z,18.00
2022-08-12T05:15:29.679Z,18.00
2022-08-12T05:18:00.057Z,18.00
2022-08-12T05:20:29.745Z,18.00
2022-08-12T05:22:57.967Z,18.10
2022-08-12T05:25:26.692Z,18.10
2022-08-12T05:27:55.582Z,18.10
2022-08-12T05:30:25.611Z,18.20
2022-08-12T05:32:53.769Z,18.20
2022-08-12T05:35:21.678Z,18.30
2022-08-12T05:37:49.296Z,18.30
2022-08-12T05:40:16.395Z,18.30
2022-08-12T05:42:43.558Z,18.40
2022-08-12T05:45:10.423Z,18.40
2022-08-12T05:47:52.961Z,18.40
2022-08-12T05:50:20.809Z,18.50
2022-08-12T05:52:48.570Z,18.50
2022-08-12T05:55:15.349Z,18.50
2022-08-12T05:57:44.316Z,18.50
2022-08-12T06:00:11.111Z,18.60
2022-08-12T06:02:37.900Z,18.70
2022-08-12T06:05:10.739Z,18.80
2022-08-12T06:08:02.159Z,18.90
2022-08-12T06:10:31.506Z,19.00
2022-08-12T06:12:58.948Z,19.10
2022-08-12T06:15:25.666Z,19.20
2022-08-12T06:21:21.656Z,19.40
2022-08-12T06:23:48.237Z,19.60
2022-08-12T06:26:16.565Z,19.70
2022-08-12T06:28:43.152Z,19.90
2022-08-12T06:31:26.875Z,20.00
2022-08-12T06:34:01.040Z,20.20
2022-08-12T06:36:41.619Z,20.30
2022-08-12T06:39:14.515Z,20.50
2022-08-12T06:42:10.783Z,20.50
2022-08-12T06:44:47.037Z,20.60
2022-08-12T06:47:16.464Z,20.80
2022-08-12T06:49:44.284Z,20.90
2022-08-12T06:52:10.845Z,21.10
2022-08-12T06:54:37.369Z,21.20
2022-08-12T06:57:14.336Z,21.30
2022-08-12T06:59:50.909Z,21.50
2022-08-12T07:02:19.653Z,21.60
2022-08-12T07:04:47.309Z,21.80
2022-08-12T07:07:13.850Z,21.90
2022-08-12T07:10:04.465Z,22.10
2022-08-12T07:12:28.927Z,22.20
2022-08-12T07:14:55.580Z,22.30
2022-08-12T07:17:22.221Z,22.50
2022-08-12T07:19:51.778Z,22.60
2022-08-12T07:22:18.739Z,22.70
2022-08-12T07:25:05.236Z,22.80
2022-08-12T07:27:32.437Z,22.90
2022-08-12T07:30:04.833Z,23.10
2022-08-12T07:32:31.849Z,23.20
2022-08-12T07:34:58.398Z,23.30
2022-08-12T07:37:24.941Z,23.40
2022-08-12T07:40:00.024Z,23.50
2022-08-12T07:42:27.268Z,23.60
2022-08-12T07:44:53.811Z,23.70
2022-08-12T07:47:20.401Z,23.90
2022-08-12T07:50:04.220Z,24.00
2022-08-12T07:52:32.978Z,24.10
2022-08-12T07:55:00.039Z,24.20
2022-08-12T07:57:26.587Z,24.30
2022-08-12T07:59:55.810Z,24.40
2022-08-12T08:02:26.447Z,24.50
2022-08-12T08:04:56.711Z,24.60
2022-08-12T08:07:23.773Z,24.70
2022-08-12T08:09:50.348Z,24.70
2022-08-12T08:12:43.886Z,24.80
2022-08-12T08:15:11.076Z,24.90
2022-08-12T08:17:37.690Z,25.00
2022-08-12T08:20:04.639Z,25.10
2022-08-12T08:22:41.369Z,25.30
2022-08-12T08:25:35.115Z,25.40
2022-08-12T08:27:55.443Z,25.50
2022-08-12T08:30:22.638Z,25.50
2022-08-12T08:32:49.218Z,25.70
2022-08-12T08:35:15.770Z,25.70
2022-08-12T08:37:46.878Z,25.80
2022-08-12T08:40:33.587Z,25.80
2022-08-12T08:43:00.146Z,25.90
2022-08-12T08:45:28.405Z,25.90
2022-08-12T08:47:58.424Z,25.90
2022-08-12T08:50:27.157Z,25.90
2022-08-12T08:52:53.683Z,26.00
2022-08-12T08:55:27.406Z,26.10
2022-08-12T08:58:00.016Z,26.20
2022-08-12T09:00:26.587Z,26.40
2022-08-12T09:02:59.412Z,26.40
2022-08-12T09:05:26.291Z,26.50
2022-08-12T09:10:40.741Z,26.60
2022-08-12T09:14:11.582Z,26.60
2022-08-12T09:16:21.173Z,26.60
2022-08-12T09:18:52.469Z,26.60
2022-08-12T09:21:19.745Z,26.70
2022-08-12T09:23:59.871Z,26.70
2022-08-12T09:26:29.017Z,26.80
2022-08-12T09:28:55.676Z,26.90
2022-08-12T09:32:07.091Z,27.00
2022-08-12T09:34:27.993Z,27.10
2022-08-12T09:37:03.036Z,27.10
2022-08-12T09:40:06.059Z,27.10
2022-08-12T09:43:11.670Z,27.10
2022-08-12T09:46:19.773Z,27.20
2022-08-12T09:48:24.509Z,27.30
2022-08-12T09:50:51.724Z,27.40
2022-08-12T09:53:35.896Z,27.40
2022-08-12T09:56:57.371Z,27.50
2022-08-12T09:59:00.639Z,27.50
2022-08-12T10:01:34.537Z,27.60
2022-08-12T10:04:14.906Z,27.60
2022-08-12T10:06:54.897Z,27.80
2022-08-12T10:09:28.215Z,27.80
2022-08-12T10:12:39.054Z,27.90
2022-08-12T10:15:05.725Z,28.00
2022-08-12T10:17:32.950Z,28.10
2022-08-12T10:20:01.693Z,28.20
2022-08-12T10:22:39.120Z,28.20
2022-08-12T10:26:33.893Z,28.30
2022-08-12T10:28:31.648Z,28.40
2022-08-12T10:30:59.682Z,28.50
2022-08-12T10:33:30.954Z,28.40
2022-08-12T10:35:59.733Z,28.50
2022-08-12T10:38:33.550Z,28.40
2022-08-12T10:41:22.385Z,28.50
2022-08-12T10:44:17.350Z,28.60
2022-08-12T10:46:45.819Z,28.60
2022-08-12T10:50:03.046Z,28.70
2022-08-12T10:52:34.519Z,28.70
2022-08-12T10:54:51.101Z,28.80
2022-08-12T10:57:18.386Z,28.90
2022-08-12T11:00:31.982Z,28.90
2022-08-12T11:04:22.742Z,29.00
2022-08-12T11:07:02.478Z,29.00
2022-08-12T11:08:37.319Z,29.20
2022-08-12T11:11:13.403Z,29.20
2022-08-12T11:13:46.652Z,29.30
2022-08-12T11:16:22.361Z,29.40
2022-08-12T11:18:55.173Z,29.50
2022-08-12T11:21:51.432Z,29.60
2022-08-12T11:24:30.057Z,29.60
2022-08-12T11:29:24.173Z,29.80
2022-08-12T11:32:02.089Z,29.80
2022-08-12T11:34:51.738Z,29.80
2022-08-12T11:37:25.744Z,29.60
2022-08-12T11:42:33.481Z,29.60
2022-08-12T11:44:59.981Z,29.70
2022-08-12T11:47:26.472Z,29.70
2022-08-12T11:49:53.033Z,29.80
2022-08-12T11:52:51.331Z,30.00
2022-08-12T11:55:06.367Z,30.10
2022-08-12T11:58:27.986Z,30.20
2022-08-12T12:03:06.051Z,30.40
2022-08-12T12:05:41.625Z,30.50
2022-08-12T12:08:40.468Z,30.80
2022-08-12T12:10:55.128Z,30.80
2022-08-12T12:13:22.994Z,30.80
2022-08-12T12:16:09.433Z,30.80
2022-08-12T12:18:36.057Z,30.60
2022-08-12T12:21:04.024Z,30.50
2022-08-12T12:23:30.991Z,30.50
2022-08-12T12:26:08.273Z,30.40
2022-08-12T12:28:37.692Z,30.20
2022-08-12T12:31:04.604Z,30.20
2022-08-12T12:33:57.040Z,30.20
2022-08-12T12:36:24.166Z,30.30
2022-08-12T12:38:56.427Z,30.30
2022-08-12T12:41:37.091Z,30.40
2022-08-12T12:44:13.276Z,30.50
2022-08-12T12:46:52.099Z,30.70
2022-08-12T12:49:26.259Z,30.70
2022-08-12T12:52:18.520Z,30.80
2022-08-12T12:54:52.466Z,31.00
2022-08-12T12:57:21.567Z,31.10
2022-08-12T13:00:16.325Z,31.20
2022-08-12T13:02:46.050Z,31.00
2022-08-12T13:05:20.408Z,30.80
2022-08-12T13:08:00.665Z,30.70
2022-08-12T13:10:30.603Z,30.80
2022-08-12T13:12:57.354Z,31.00
2022-08-12T13:15:43.136Z,31.00
2022-08-12T13:18:10.386Z,31.10
2022-08-12T13:20:37.739Z,31.30
2022-08-12T13:23:36.133Z,31.40
2022-08-12T13:25:57.165Z,31.50
2022-08-12T13:28:23.700Z,31.40
2022-08-12T13:30:57.470Z,31.30
2022-08-12T13:33:26.069Z,31.00
2022-08-12T13:36:05.021Z,31.10
2022-08-12T13:38:34.895Z,31.20
2022-08-12T13:41:02.035Z,31.30
2022-08-12T13:43:40.932Z,31.30
2022-08-12T13:46:12.104Z,31.40
2022-08-12T13:48:39.119Z,31.30
2022-08-12T13:51:11.941Z,31.30
2022-08-12T13:53:58.143Z,31.30
2022-08-12T13:56:29.904Z,31.30
2022-08-12T13:59:01.579Z,31.30
2022-08-12T14:01:28.408Z,31.40
2022-08-12T14:03:55.069Z,31.50
2022-08-12T14:06:21.916Z,31.50
2022-08-12T14:08:52.575Z,31.50
2022-08-12T14:11:19.402Z,31.50
2022-08-12T14:14:04.041Z,31.40
2022-08-12T14:16:49.281Z,31.20
2022-08-12T14:19:25.612Z,31.00
2022-08-12T14:21:59.596Z,30.80
2022-08-12T14:24:30.849Z,30.90
2022-08-12T14:26:58.700Z,30.80
2022-08-12T14:29:38.238Z,31.00
2022-08-12T14:32:17.523Z,31.10
2022-08-12T14:34:44.636Z,31.20
2022-08-12T14:37:12.949Z,31.30
2022-08-12T14:39:40.660Z,31.30
2022-08-12T14:42:17.607Z,31.30
2022-08-12T14:44:58.143Z,31.00
2022-08-12T14:47:29.339Z,30.90
2022-08-12T14:50:41.131Z,30.90
2022-08-12T14:56:59.977Z,30.90
2022-08-12T14:58:27.704Z,30.70
2022-08-12T15:01:13.164Z,30.70
2022-08-12T15:03:56.874Z,30.80
2022-08-12T15:06:43.595Z,30.60
2022-08-12T15:09:13.935Z,30.50
2022-08-12T15:11:55.069Z,30.60
2022-08-12T15:14:23.825Z,30.60
2022-08-12T15:16:51.098Z,30.70
2022-08-12T15:20:04.748Z,30.70
2022-08-12T15:22:39.364Z,30.70
2022-08-12T15:24:50.849Z,30.70
2022-08-12T15:27:22.367Z,30.70
2022-08-12T15:29:59.082Z,30.80
2022-08-12T15:32:32.015Z,30.90
2022-08-12T15:35:00.439Z,30.90
2022-08-12T15:37:58.903Z,30.90
2022-08-12T15:40:13.797Z,30.80
2022-08-12T15:42:40.552Z,30.90
2022-08-12T15:45:08.637Z,30.90
2022-08-12T15:47:49.626Z,31.00
2022-08-12T15:50:23.030Z,31.10
2022-08-12T15:52:50.034Z,31.00
2022-08-12T15:55:16.824Z,31.00
2022-08-12T15:57:54.024Z,31.00
2022-08-12T16:00:31.582Z,31.10
2022-08-12T16:02:59.743Z,31.10
2022-08-12T16:06:12.624Z,31.10
2022-08-12T16:08:19.827Z,31.00
2022-08-12T16:10:50.992Z,31.00
2022-08-12T16:13:32.529Z,31.10
2022-08-12T16:16:03.665Z,31.20
2022-08-12T16:18:38.072Z,31.20
2022-08-12T16:21:04.728Z,31.30
2022-08-12T16:23:51.715Z,31.40
2022-08-12T16:26:32.124Z,31.40
2022-08-12T16:28:59.413Z,31.40
2022-08-12T16:31:42.350Z,31.50
2022-08-12T16:34:39.805Z,31.50
2022-08-12T16:37:03.055Z,31.50
2022-08-12T16:39:30.455Z,31.50
2022-08-12T16:41:59.172Z,31.50
2022-08-12T16:44:26.659Z,31.40
2022-08-12T16:46:59.549Z,31.50
2022-08-12T16:49:26.085Z,31.60
2022-08-12T16:51:52.717Z,31.60
2022-08-12T16:54:21.880Z,31.70
2022-08-12T16:56:57.842Z,31.70
2022-08-12T16:59:26.203Z,31.80
2022-08-12T17:01:57.881Z,31.80
2022-08-12T17:04:25.230Z,31.80
2022-08-12T17:06:52.527Z,31.80
2022-08-12T17:09:19.131Z,31.80
2022-08-12T17:11:48.973Z,31.80
2022-08-12T17:14:16.373Z,31.60
2022-08-12T17:16:43.302Z,31.50
2022-08-12T17:19:13.895Z,31.60
2022-08-12T17:22:01.149Z,31.60
2022-08-12T17:24:30.573Z,31.60
2022-08-12T17:26:57.534Z,31.50
2022-08-12T17:30:01.169Z,31.30
2022-08-12T17:32:14.165Z,31.30
2022-08-12T17:35:00.023Z,31.20
2022-08-12T17:37:26.874Z,31.10
2022-08-12T17:40:07.456Z,31.10
2022-08-12T17:42:43.422Z,31.10
2022-08-12T17:45:17.845Z,30.90
2022-08-12T17:47:45.547Z,30.70
2022-08-12T17:50:28.712Z,30.40
2022-08-12T17:52:57.999Z,30.10
2022-08-12T17:55:44.712Z,29.80
2022-08-12T17:58:14.877Z,29.40
2022-08-12T18:00:42.625Z,29.00
2022-08-12T18:03:09.317Z,28.70
2022-08-12T18:05:55.414Z,28.40
2022-08-12T18:08:29.354Z,28.30
2022-08-12T18:11:21.316Z,28.10
2022-08-12T18:14:01.894Z,28.00
2022-08-12T18:16:28.925Z,27.70
2022-08-12T18:19:02.209Z,27.60
2022-08-12T18:22:01.232Z,27.40
2022-08-12T18:24:22.050Z,27.40
2022-08-12T18:26:49.043Z,27.20
2022-08-12T18:29:16.180Z,27.10
2022-08-12T18:31:44.597Z,27.10
2022-08-12T18:34:26.748Z,27.00
2022-08-12T18:36:55.508Z,27.00
2022-08-12T18:39:22.351Z,26.90
2022-08-12T18:41:48.909Z,26.80
2022-08-12T18:44:15.475Z,26.70
2022-08-12T18:46:48.892Z,26.70
2022-08-12T18:49:25.064Z,26.60
2022-08-12T18:52:02.351Z,26.60
2022-08-12T18:54:30.441Z,26.50
2022-08-12T18:57:00.587Z,26.40
2022-08-12T19:00:01.649Z,26.40
2022-08-12T19:02:21.465Z,26.30
2022-08-12T19:04:49.374Z,26.20
2022-08-12T19:07:19.589Z,26.20
2022-08-12T19:09:59.162Z,26.20
2022-08-12T19:12:55.427Z,26.10
2022-08-12T19:15:25.535Z,26.10
2022-08-12T19:18:00.314Z,26.00
2022-08-12T19:20:29.860Z,25.90
2022-08-12T19:22:59.773Z,25.80
2022-08-12T19:26:00.673Z,25.60
2022-08-12T19:28:30.253Z,25.60
2022-08-12T19:31:20.382Z,25.50
2022-08-12T19:34:06.378Z,25.50
2022-08-12T19:36:34.567Z,25.40
2022-08-12T19:39:02.848Z,25.30
2022-08-12T19:42:00.761Z,25.20
2022-08-12T19:44:28.170Z,25.20
2022-08-12T19:46:54.702Z,25.10
2022-08-12T19:49:22.512Z,25.00
2022-08-12T19:51:52.381Z,24.90
2022-08-12T19:54:22.640Z,24.90
2022-08-12T19:56:51.414Z,24.80
2022-08-12T19:59:43.435Z,24.70
2022-08-12T20:02:32.771Z,24.60
2022-08-12T20:06:06.056Z,24.50
2022-08-12T20:07:58.992Z,24.40
2022-08-12T20:10:27.180Z,24.30
2022-08-12T20:13:19.096Z,24.30
2022-08-12T20:15:51.054Z,24.20
2022-08-12T20:18:44.655Z,24.20
2022-08-12T20:21:14.815Z,24.20
2022-08-12T20:23:50.689Z,24.10
2022-08-12T20:26:27.683Z,24.10
2022-08-12T20:28:54.741Z,24.10
2022-08-12T20:31:21.292Z,24.00
2022-08-12T20:33:56.526Z,23.90
2022-08-12T20:36:40.971Z,23.90
2022-08-12T20:39:34.324Z,23.90
2022-08-12T20:41:58.487Z,23.80
2022-08-12T20:44:26.371Z,23.80
2022-08-12T20:46:55.887Z,23.70
2022-08-12T20:49:24.927Z,23.70
2022-08-12T20:51:56.013Z,23.60
2022-08-12T20:54:22.841Z,23.60
2022-08-12T20:57:00.917Z,23.50
2022-08-12T20:59:31.797Z,23.60
2022-08-12T21:01:58.715Z,23.50
2022-08-12T21:04:50.833Z,23.40
2022-08-12T21:07:17.366Z,23.40
2022-08-12T21:09:50.403Z,23.30
2022-08-12T21:12:27.833Z,23.30
2022-08-12T21:15:22.811Z,23.30
2022-08-12T21:18:08.651Z,23.20
2022-08-12T21:20:34.083Z,23.10
2022-08-12T21:23:03.581Z,23.00
2022-08-12T21:25:44.093Z,23.00
2022-08-12T21:28:11.502Z,22.90
2022-08-12T21:30:43.039Z,22.80
2022-08-12T21:33:31.099Z,22.70
2022-08-12T21:35:58.093Z,22.60
2022-08-12T21:38:26.365Z,22.50
2022-08-12T21:41:01.626Z,22.50
2022-08-12T21:43:38.826Z,22.40
2022-08-12T21:46:33.636Z,22.40
2022-08-12T21:49:04.024Z,22.30
2022-08-12T21:51:49.687Z,22.30
2022-08-12T21:54:21.890Z,22.30
2022-08-12T21:56:48.903Z,22.20
2022-08-12T21:59:15.422Z,22.10
2022-08-12T22:01:48.712Z,22.10
2022-08-12T22:04:34.948Z,22.10
2022-08-12T22:07:01.461Z,22.10
2022-08-12T22:09:27.978Z,22.10
2022-08-12T22:11:58.643Z,22.20
2022-08-12T22:14:26.198Z,22.20
2022-08-12T22:16:53.236Z,22.10
2022-08-12T22:19:19.854Z,22.10
2022-08-12T22:21:52.139Z,22.00
2022-08-12T22:24:26.536Z,22.00
2022-08-12T22:26:56.049Z,21.90
2022-08-12T22:29:43.875Z,21.90
2022-08-12T22:32:13.169Z,21.80
2022-08-12T22:34:39.692Z,21.80
2022-08-12T22:37:11.173Z,21.70
2022-08-12T22:39:46.024Z,21.70
2022-08-12T22:42:34.321Z,21.70
2022-08-12T22:45:23.458Z,21.70
2022-08-12T22:47:54.621Z,21.70
2022-08-12T22:50:28.002Z,21.70
2022-08-12T22:53:14.179Z,21.70
2022-08-12T22:56:00.080Z,21.70
2022-08-12T22:58:32.050Z,21.60
2022-08-12T23:00:58.815Z,21.60
2022-08-12T23:03:47.696Z,21.60
2022-08-12T23:06:16.509Z,21.60
2022-08-12T23:08:43.441Z,21.60
2022-08-12T23:11:10.085Z,21.50
2022-08-12T23:13:47.146Z,21.50
2022-08-12T23:16:28.031Z,21.40
2022-08-12T23:18:57.028Z,21.30
2022-08-12T23:21:24.409Z,21.20
2022-08-12T23:24:09.390Z,21.20
2022-08-12T23:26:56.197Z,21.20
2022-08-12T23:29:30.029Z,21.10
2022-08-12T23:32:10.769Z,21.00
2022-08-12T23:34:37.357Z,21.00
2022-08-12T23:37:04.559Z,21.00
2022-08-12T23:40:06.525Z,20.90
2022-08-12T23:42:19.596Z,20.80
2022-08-12T23:44:48.606Z,20.80
2022-08-12T23:47:18.857Z,20.80
2022-08-12T23:49:58.616Z,20.70
2022-08-12T23:52:33.760Z,20.60
2022-08-12T23:55:24.775Z,20.70
2022-08-12T23:58:18.554Z,20.60
